Latest Weather Observations for Kilmore Gap

IDV60801

Issued at 8:02 pm EDT Wednesday 25 November 2020 (issued every 10 minutes, with the page automatically refreshed every 10 minutes)

About weather observations | Map of weather stations | Latest weather observations for VIC | Other Formats
Station Details ID: 088162 Name: KILMORE GAP Lat: -37.38 Lon: 144.97 Height: 527.8 m
Data from the previous 72 hours. | See also: Recent months at Kilmore Gap
Date/Time
EDT
Temp
°C
App
Temp
°C
Dew
Point
°C
Rel
Hum
%
Delta-T
°C
Wind Press
QNH
hPa
Press
MSL
hPa
Rain since
9am
mm
Dir  Spd
km/h
Gust
km/h
Spd
kts
Gust
kts
25/08:00pm 22.5 21.1 13.3 56 5.4 NNW 13 17 7 9 1011.1 1010.1 0.0
25/07:30pm 23.4 22.1 13.8 54 5.7 NNW 13 17 7 9 1011.0 1010.0 0.0
25/07:00pm 24.2 22.8 13.4 51 6.4 NNW 13 17 7 9 1010.8 1009.8 0.0
25/06:30pm 25.0 23.5 13.2 48 7.0 NW 13 20 7 11 1010.8 1009.8 0.0
25/06:00pm 26.0 24.4 12.8 44 7.9 WNW 13 19 7 10 1010.8 1009.8 0.0
25/05:30pm 25.9 23.7 13.4 46 7.5 WNW 17 24 9 13 1010.8 1009.8 0.0
25/05:00pm 25.5 24.1 14.6 51 6.7 NW 15 20 8 11 1011.0 1010.0 0.0
25/04:30pm 25.6 24.1 14.1 49 7.0 NW 15 24 8 13 1011.0 1010.0 0.0
25/04:00pm 25.5 23.6 15.2 53 6.4 NW 19 30 10 16 1011.1 1010.1 0.0
25/03:30pm 24.8 21.9 13.0 47 7.0 NW 20 28 11 15 1011.2 1010.2 0.0
25/03:00pm 24.7 21.1 14.2 52 6.4 NW 26 33 14 18 1011.2 1010.2 0.0
25/02:30pm 24.3 21.0 15.0 56 5.7 NNW 26 32 14 17 1011.4 1010.4 0.0
25/02:00pm 24.0 20.4 13.2 50 6.4 NNW 24 32 13 17 1011.7 1010.7 0.0
25/01:30pm 23.1 19.5 13.0 53 6.0 NNW 24 32 13 17 1012.0 1011.1 0.0
25/01:00pm 22.4 18.4 12.9 55 5.6 NNW 26 35 14 19 1012.1 1011.2 0.0
25/12:30pm 22.3 18.4 14.4 61 4.7 N 28 37 15 20 1012.5 1011.5 0.0
25/12:00pm 21.3 17.0 13.2 60 4.8 NNW 28 37 15 20 1012.5 1011.5 0.0
25/11:30am 20.9 17.6 14.1 65 4.0 N 24 30 13 16 1012.6 1011.6 0.0
25/11:00am 19.2 15.0 12.5 65 3.8 N 26 33 14 18 1012.8 1011.8 0.0
25/10:30am 19.1 15.8 12.8 67 3.6 N 22 32 12 17 1012.9 1011.9 0.0
25/10:00am 18.6 17.2 13.5 72 3.0 N 13 19 7 10 1013.1 1012.1 0.0
25/09:30am 17.7 16.4 11.3 66 3.6 NE 9 17 5 9 1013.1 1012.1 0.0
25/09:00am 17.8 17.0 11.1 65 3.7 E 6 9 3 5 1013.3 1012.3 0.0
25/08:30am 16.1 14.3 9.3 64 3.6 E 9 11 5 6 1013.2 1012.2 0.0
25/08:00am 15.1 12.4 9.0 67 3.2 ESE 13 15 7 8 1013.0 1012.0 0.0
25/07:30am 14.3 11.7 9.3 72 2.6 SSE 13 17 7 9 1012.9 1011.9 0.0
25/07:00am 13.6 10.5 8.9 73 2.4 S 15 17 8 9 1012.9 1011.9 0.0
25/06:30am 12.8 9.7 8.7 76 2.1 SSE 15 19 8 10 1012.6 1011.6 0.0
25/06:00am 12.2 9.4 8.7 79 1.8 SSE 13 19 7 10 1012.5 1011.5 0.0
25/05:30am 12.1 9.4 8.9 81 1.6 SSE 13 17 7 9 1012.1 1011.2 0.0
25/05:00am 11.7 9.0 9.1 84 1.3 SSE 13 17 7 9 1012.1 1011.2 0.0
25/04:30am 11.8 8.5 9.4 85 1.2 SSE 17 20 9 11 1012.2 1011.3 0.0
25/04:00am 11.9 9.4 9.8 87 1.1 SSE 13 19 7 10 1012.3 1011.4 0.0
25/03:30am 11.9 8.7 9.8 87 1.1 SSE 17 20 9 11 1012.3 1011.4 0.0
25/03:00am 12.1 8.9 10.0 87 1.1 SSE 17 20 9 11 1012.7 1011.7 0.0
25/02:30am 12.2 9.0 10.1 87 1.1 SE 17 19 9 10 1012.8 1011.8 0.0
25/02:00am 11.8 9.4 10.2 90 0.8 ESE 13 17 7 9 1013.1 1012.1 0.0
25/01:30am 11.8 9.8 10.0 89 0.9 ESE 11 13 6 7 1013.6 1012.7 0.0
25/01:00am 12.1 9.4 10.2 88 1.0 SSE 15 19 8 10 1013.9 1013.0 0.0
25/12:30am 12.4 9.4 10.5 88 1.0 SSE 17 20 9 11 1014.3 1013.4 0.0
25/12:00am 12.2 9.5 10.3 88 1.0 SSE 15 17 8 9 1014.8 1013.8 0.0
 
Date/Time
EDT
Temp
°C
App
Temp
°C
Dew
Point
°C
Rel
Hum
%
Delta-T
°C
Wind Press
QNH
hPa
Press
MSL
hPa
Rain since
9am
mm
Dir  Spd
km/h
Gust
km/h
Spd
kts
Gust
kts
24/11:30pm 12.3 9.9 10.2 87 1.1 SSE 13 17 7 9 1014.8 1013.8 0.0
24/11:00pm 12.6 9.9 10.3 86 1.2 SSE 15 17 8 9 1015.1 1014.1 0.0
24/10:30pm 12.9 9.9 10.8 87 1.1 SSE 17 20 9 11 1015.1 1014.1 0.0
24/10:00pm 13.0 10.5 11.2 89 1.0 SSE 15 19 8 10 1015.3 1014.4 0.0
24/09:30pm 13.5 10.3 11.4 87 1.1 S 19 24 10 13 1015.2 1014.3 0.0
24/09:00pm 13.3 9.8 11.0 86 1.2 S 20 24 11 13 1015.0 1014.0 0.0
24/08:30pm 14.0 10.8 11.2 83 1.5 S 19 22 10 12 1014.9 1013.9 0.0
24/08:00pm 14.3 12.1 10.9 80 1.8 S 13 19 7 10 1014.7 1013.7 0.0
24/07:30pm 14.7 12.5 10.9 78 2.1 SSW 13 19 7 10 1014.6 1013.6 0.0
24/07:00pm 14.9 12.3 10.7 76 2.3 SSW 15 22 8 12 1014.2 1013.3 0.0
24/06:30pm 15.3 11.7 10.7 74 2.5 S 20 30 11 16 1013.9 1013.0 0.0
24/06:00pm 15.5 13.0 11.1 75 2.4 SSW 15 22 8 12 1013.9 1013.0 0.0
24/05:30pm 15.7 12.3 10.7 72 2.7 S 19 26 10 14 1013.7 1012.8 0.0
24/05:00pm 15.3 12.8 10.9 75 2.4 SSW 15 24 8 13 1013.7 1012.8 0.0
24/04:30pm 15.5 12.8 10.5 72 2.7 SSW 15 24 8 13 1013.7 1012.8 0.0
24/04:00pm 15.6 12.2 10.6 72 2.7 S 19 28 10 15 1013.8 1012.9 0.0
24/03:30pm 15.8 12.3 10.3 70 3.0 S 19 26 10 14 1014.0 1013.1 0.0
24/03:00pm 15.5 11.5 10.5 72 2.7 S 22 35 12 19 1014.5 1013.5 0.0
24/02:30pm 16.4 12.5 10.7 69 3.1 S 22 35 12 19 1014.6 1013.6 0.0
24/02:00pm 15.8 12.1 10.3 70 3.0 S 20 32 11 17 1014.7 1013.7 0.0
24/01:30pm 15.0 10.5 10.0 72 2.7 S 24 32 13 17 1014.8 1013.8 0.0
24/01:00pm 16.3 12.6 11.5 73 2.7 S 22 32 12 17 1015.0 1014.0 0.0
24/12:30pm 14.5 11.0 10.3 76 2.3 S 19 30 10 16 1015.2 1014.3 0.0
24/12:00pm 14.5 11.4 10.3 76 2.3 S 17 26 9 14 1015.3 1014.4 0.0
24/11:30am 14.5 10.8 10.1 75 2.4 S 20 35 11 19 1015.6 1014.7 0.0
24/11:00am 13.5 9.1 8.8 73 2.4 S 22 37 12 20 1015.2 1014.3 0.0
24/10:30am 13.4 8.6 8.7 73 2.4 S 24 35 13 19 1015.3 1014.4 0.0
24/10:00am 12.6 8.1 8.7 77 2.0 S 22 37 12 20 1015.3 1014.4 0.0
24/09:30am 11.1 7.9 8.5 84 1.3 SSW 15 20 8 11 1014.5 1013.5 0.0
24/09:00am 10.1 6.4 8.0 87 1.0 SSW 17 28 9 15 1014.5 1013.5 2.0
24/08:30am 10.0 6.0 8.3 89 0.9 SSW 19 28 10 15 1014.6 1013.6 2.0
24/08:00am 9.5 5.8 8.1 91 0.7 SSW 17 26 9 14 1014.5 1013.5 2.0
24/07:30am 9.1 4.8 8.0 93 0.5 SSW 20 28 11 15 1014.2 1013.3 2.0
24/07:00am 8.8 4.5 8.0 95 0.4 SSW 20 30 11 16 1013.9 1013.0 2.0
24/06:30am 8.5 4.5 8.4 99 0.0 SSW 19 28 10 15 1013.7 1012.8 2.0
24/06:00am 8.7 4.8 8.7 100 0.0 SSW 19 28 10 15 1013.8 1012.9 2.0
24/05:30am 8.8 4.7 8.8 100 0.0 SSW 20 30 11 16 1013.3 1012.3 2.0
24/05:00am 9.0 4.6 9.0 100 0.0 SSW 22 35 12 19 1013.1 1012.1 2.0
24/04:30am 9.2 5.4 9.2 100 0.0 SSW 19 32 10 17 1013.1 1012.1 2.0
24/04:10am 9.3 5.9 9.3 100 0.0 SSW 17 24 9 13 1013.1 1012.1 2.0
24/04:00am 9.4 6.1 9.4 100 0.0 SSW 17 26 9 14 1013.2 1012.2 2.0
24/03:30am 9.7 6.1 9.7 100 0.0 S 19 28 10 15 1013.3 1012.3 2.0
24/03:25am 9.8 6.2 9.8 100 0.0 S 19 30 10 16 1013.3 1012.3 2.0
24/03:00am 9.7 5.1 9.7 100 0.0 S 24 39 13 21 1013.7 1012.8 2.0
24/02:30am 10.0 6.3 10.0 100 0.0 S 20 30 11 16 1014.5 1013.5 2.0
24/02:00am 10.1 6.4 10.1 100 0.0 S 20 26 11 14 1014.7 1013.7 2.0
24/01:30am 10.3 6.6 10.3 100 0.0 S 20 32 11 17 1014.8 1013.8 2.0
24/01:08am 10.5 6.9 10.5 100 0.0 S 20 28 11 15 1014.8 1013.8 2.0
24/01:00am 10.5 6.9 10.5 100 0.0 S 20 30 11 16 1014.7 1013.7 2.0
24/12:30am 10.3 6.6 10.1 99 0.1 SSW 20 32 11 17 1014.7 1013.7 2.0
24/12:00am 10.6 7.5 10.3 98 0.2 SSW 17 26 9 14 1015.0 1014.0 2.0
 
Date/Time
EDT
Temp
°C
App
Temp
°C
Dew
Point
°C
Rel
Hum
%
Delta-T
°C
Wind Press
QNH
hPa
Press
MSL
hPa
Rain since
9am
mm
Dir  Spd
km/h
Gust
km/h
Spd
kts
Gust
kts
23/11:30pm 10.6 6.2 10.3 98 0.2 S 24 35 13 19 1015.1 1014.1 2.0
23/11:00pm 10.4 5.1 9.8 96 0.3 S 28 35 15 19 1015.1 1014.1 2.0
23/10:30pm 10.3 4.2 9.8 97 0.3 S 32 43 17 23 1015.1 1014.1 2.0
23/10:00pm 10.3 5.3 9.5 95 0.4 S 26 43 14 23 1014.9 1013.9 2.0
23/09:30pm 10.8 5.4 9.6 92 0.6 S 28 41 15 22 1014.7 1013.7 2.0
23/09:00pm 11.1 5.1 10.2 94 0.5 S 32 43 17 23 1014.5 1013.5 2.0
23/08:30pm 11.2 5.4 10.9 98 0.2 S 32 44 17 24 1013.8 1012.9 2.0
23/08:00pm 11.4 5.6 10.9 97 0.3 S 32 44 17 24 1013.6 1012.7 2.0
23/07:32pm 11.7 6.1 11.5 99 0.1 S 32 50 17 27 1013.3 1012.3 2.0
23/07:30pm 11.8 6.6 11.6 99 0.1 S 30 39 16 21 1013.4 1012.4 2.0
23/07:00pm 12.1 5.7 11.9 99 0.1 S 37 54 20 29 1013.1 1012.1 2.0
23/06:53pm 12.1 6.0 11.9 99 0.1 S 35 54 19 29 1013.0 1012.0 2.0
23/06:41pm 12.2 6.2 12.0 99 0.1 S 35 48 19 26 1012.8 1011.8 2.0
23/06:30pm 12.4 6.4 12.1 98 0.2 S 35 52 19 28 1012.8 1011.8 2.0
23/06:00pm 13.2 7.2 12.1 93 0.6 S 35 50 19 27 1012.6 1011.6 2.0
23/05:30pm 13.8 8.3 11.8 88 1.1 S 32 43 17 23 1012.5 1011.5 2.0
23/05:00pm 13.9 8.4 12.6 92 0.7 S 33 46 18 25 1012.5 1011.5 2.0
23/04:30pm 14.4 8.0 13.1 92 0.7 S 39 46 21 25 1012.1 1011.2 2.0
23/04:00pm 14.6 10.4 14.6 100 0.0 S 30 41 16 22 1012.1 1011.2 2.0
23/03:30pm 13.8 10.4 13.8 100 0.0 S 24 39 13 21 1012.2 1011.3 2.0
23/03:00pm 13.5 10.8 13.5 100 0.0 SSW 20 32 11 17 1012.2 1011.3 1.8
23/02:58pm 13.2 10.0 13.2 100 0.0 SSW 22 35 12 19 1012.2 1011.3 1.8
23/02:30pm 13.3 10.5 13.3 100 0.0 SSW 20 30 11 16 1012.6 1011.6 1.8
23/02:00pm 13.1 10.5 13.1 100 0.0 SSW 19 28 10 15 1012.7 1011.7 1.8
23/01:30pm 13.0 10.7 13.0 100 0.0 SSW 17 26 9 14 1012.5 1011.5 1.8
23/01:00pm 13.0 10.1 13.0 100 0.0 S 20 32 11 17 1012.2 1011.3 1.4
23/12:30pm 13.1 10.5 13.1 100 0.0 SSW 19 30 10 16 1012.0 1011.1 0.6
23/12:00pm 13.9 10.6 13.9 100 0.0 SSW 24 33 13 18 1011.6 1010.6 0.6
23/11:30am 15.0 12.4 15.0 100 0.0 SSW 22 35 12 19 1011.2 1010.2 0.0
23/11:27am 15.2 13.1 15.2 100 0.0 SSW 20 35 11 19 1011.2 1010.2 0.0
23/11:00am 15.4 13.0 15.4 100 0.0 SSW 22 33 12 18 1011.1 1010.1 0.0
23/10:30am 16.8 14.9 16.8 100 0.0 S 22 32 12 17 1010.9 1009.9 0.0
23/10:00am 15.7 13.4 15.7 100 0.0 S 22 35 12 19 1010.7 1009.7 0.0
23/09:30am 14.4 12.6 14.4 100 0.0 SW 17 22 9 12 1011.2 1010.2 0.0
23/09:00am 14.1 12.2 14.1 100 0.0 S 17 22 9 12 1010.5 1009.5 33.0
23/08:46am 13.9 12.3 13.9 100 0.0 SSE 15 19 8 10 1010.5 1009.5 33.0
23/08:30am 13.5 10.8 13.5 100 0.0 S 20 28 11 15 1009.7 1008.7 33.0
23/08:00am 13.3 9.0 13.3 100 0.0 SW 28 39 15 21 1010.8 1009.8 32.8
23/07:59am 13.3 9.0 13.3 100 0.0 SW 28 39 15 21 1010.8 1009.8 32.8
23/07:30am 13.5 8.5 13.5 100 0.0 SW 32 48 17 26 1011.5 1010.5 31.4
23/07:07am 14.0 8.2 14.0 100 0.0 SW 37 57 20 31 1010.7 1009.7 30.0
23/07:00am 14.2 10.2 14.2 100 0.0 WSW 28 57 15 31 1010.1 1009.1 27.2
23/06:58am 14.7 11.7 14.7 100 0.0 W 24 57 13 31 1010.1 1009.1 25.2
23/06:52am 15.6 13.3 15.6 100 0.0 NNW 22 28 12 15 1009.2 1008.2 20.4
23/06:30am 15.7 13.4 15.7 100 0.0 NNW 22 30 12 16 1009.1 1008.1 19.6
23/06:00am 15.6 12.5 15.6 100 0.0 NNW 26 33 14 18 1009.5 1008.5 18.4
23/05:30am 15.9 12.5 15.9 100 0.0 NNW 28 37 15 20 1009.1 1008.1 18.4
23/05:25am 15.8 12.8 15.8 100 0.0 NNW 26 33 14 18 1009.1 1008.1 18.4
23/05:05am 15.2 11.6 15.2 100 0.0 N 28 33 15 18 1008.5 1007.4 18.4
23/05:00am 15.2 11.6 15.2 100 0.0 N 28 33 15 18 1008.5 1007.4 18.4
23/04:30am 15.2 12.3 15.2 100 0.0 N 24 30 13 16 1008.8 1007.8 18.4
23/04:00am 15.5 12.0 15.5 100 0.0 N 28 35 15 19 1009.3 1008.3 18.4
23/03:30am 16.2 13.3 16.2 100 0.0 N 26 35 14 19 1009.3 1008.3 18.4
23/03:00am 15.5 12.8 15.5 100 0.0 N 24 30 13 16 1009.7 1008.7 18.4
23/02:30am 15.3 12.9 15.3 100 0.0 NNE 22 26 12 14 1010.3 1009.4 18.4
23/02:00am 15.4 13.9 15.4 100 0.0 NNE 17 20 9 11 1011.4 1010.4 18.4
23/01:30am 15.2 16.9 15.2 100 0.0 CALM 0 4 0 2 1012.6 1011.6 18.4
23/01:00am 15.3 15.3 15.3 100 0.0 SSW 9 15 5 8 1012.8 1011.8 18.4
23/12:30am 15.5 14.8 15.5 100 0.0 S 13 19 7 10 1012.9 1011.9 18.4
23/12:00am 15.9 13.3 15.9 100 0.0 N 24 32 13 17 1011.9 1011.0 18.4
 
Date/Time
EDT
Temp
°C
App
Temp
°C
Dew
Point
°C
Rel
Hum
%
Delta-T
°C
Wind Press
QNH
hPa
Press
MSL
hPa
Rain since
9am
mm
Dir  Spd
km/h
Gust
km/h
Spd
kts
Gust
kts
22/11:30pm 15.5 13.1 15.5 100 0.0 NNE 22 28 12 15 1011.7 1010.7 18.4
22/11:00pm 15.4 11.9 15.4 100 0.0 NNE 28 33 15 18 1012.0 1011.1 18.4
22/10:30pm 15.4 12.6 15.4 100 0.0 N 24 30 13 16 1012.8 1011.8 18.4
22/10:00pm 15.6 13.3 15.6 100 0.0 NNE 22 28 12 15 1012.8 1011.8 18.4
22/09:42pm 15.6 13.8 15.6 100 0.0 NNE 19 24 10 13 1013.2 1012.2 18.2
22/09:30pm 15.5 14.8 15.5 100 0.0 NNW 13 20 7 11 1013.6 1012.7 18.2
22/09:20pm 15.8 15.3 15.8 100 0.0 WSW 13 17 7 9 1014.1 1013.2 17.4
22/09:00pm 16.1 15.7 16.1 100 0.0 SE 13 20 7 11 1012.8 1011.8 17.4
22/08:37pm 15.1 13.2 15.1 100 0.0 SE 19 24 10 13 1012.8 1011.8 17.2
22/08:30pm 15.4 13.9 15.4 100 0.0 SE 17 22 9 12 1012.9 1011.9 17.2
22/08:09pm 15.6 12.9 15.6 100 0.0 SE 24 30 13 16 1013.0 1012.0 17.2
22/08:08pm 15.6 12.9 15.6 100 0.0 SE 24 30 13 16 1013.0 1012.0 17.2

Other formats

Comma delimited format used in spreadsheet applications
http://www.bom.gov.au/fwo/IDV60801/IDV60801.94860.axf

JavaScript Object Notation format (JSON) in row-major order
http://www.bom.gov.au/fwo/IDV60801/IDV60801.94860.json

Data quality

Most of these data are generated automatically and are frequently updated. Quality checks on data are not normally performed. It is possible for incorrect values to appear. Refer to information at About Latest Weather Observations and please check the disclaimer before using these data.